createdAt,value
2022-10-03T00:41:39.005Z,13.60
2022-10-03T00:44:44.497Z,11.20
2022-10-03T00:47:32.167Z,11.20
2022-10-03T00:50:19.546Z,11.20
2022-10-03T00:53:10.910Z,11.20
2022-10-03T00:55:47.017Z,11.10
2022-10-03T00:59:03.292Z,11.10
2022-10-03T01:01:38.357Z,11.10
2022-10-03T01:04:27.039Z,11.00
2022-10-03T01:07:14.001Z,10.90
2022-10-03T01:09:40.748Z,10.80
2022-10-03T01:12:32.175Z,10.90
2022-10-03T01:20:55.524Z,10.80
2022-10-03T01:23:44.035Z,10.80
2022-10-03T01:26:36.054Z,10.70
2022-10-03T01:29:36.839Z,10.70
2022-10-03T01:32:18.653Z,10.80
2022-10-03T01:35:09.331Z,10.70
2022-10-03T01:37:36.055Z,10.70
2022-10-03T01:40:29.570Z,10.60
2022-10-03T01:43:11.880Z,10.60
2022-10-03T03:45:56.987Z,9.90
2022-10-03T03:49:01.786Z,9.70
2022-10-03T03:52:05.393Z,9.70
2022-10-03T03:54:45.084Z,9.70
2022-10-03T03:57:24.679Z,9.50
2022-10-03T04:00:43.285Z,9.50
2022-10-03T04:03:13.080Z,9.50
2022-10-03T04:06:03.637Z,9.60
2022-10-03T04:09:02.245Z,9.70
2022-10-03T04:11:49.910Z,9.70
2022-10-03T04:14:47.035Z,9.50
2022-10-03T04:17:38.210Z,9.70
2022-10-03T04:20:29.045Z,9.60
2022-10-03T04:23:13.985Z,9.50
2022-10-03T04:25:54.822Z,9.40
2022-10-03T04:28:46.041Z,9.50
2022-10-03T04:31:25.472Z,9.50
2022-10-03T04:34:24.100Z,9.40
2022-10-03T04:37:18.667Z,9.30
2022-10-03T04:40:16.905Z,9.40
2022-10-03T04:43:15.849Z,9.40
2022-10-03T04:45:45.436Z,9.40
2022-10-03T04:48:18.404Z,9.50
2022-10-03T04:50:57.668Z,9.50
2022-10-03T04:53:49.026Z,9.50
2022-10-03T04:56:43.969Z,9.50
2022-10-03T04:59:13.504Z,9.50
2022-10-03T05:02:11.089Z,9.60
2022-10-03T05:05:25.039Z,9.60
2022-10-03T05:08:16.499Z,9.50
2022-10-03T05:10:55.718Z,9.50
2022-10-03T05:13:34.844Z,9.50
2022-10-03T05:16:29.135Z,9.50
2022-10-03T05:19:03.923Z,9.50
2022-10-03T05:21:40.281Z,9.50
2022-10-03T05:24:36.292Z,9.50
2022-10-03T05:27:21.511Z,9.50
2022-10-03T05:30:03.331Z,9.60
2022-10-03T05:33:03.877Z,9.50
2022-10-03T05:36:00.669Z,9.60
2022-10-03T05:38:41.443Z,9.60
2022-10-03T05:41:15.979Z,9.60
2022-10-03T05:44:01.367Z,9.70
2022-10-03T05:46:45.940Z,9.70
2022-10-03T05:49:23.662Z,9.70
2022-10-03T05:52:25.481Z,9.70
2022-10-03T05:55:17.878Z,9.80
2022-10-03T05:57:51.349Z,9.80
2022-10-03T06:00:23.261Z,9.80
2022-10-03T06:03:11.972Z,9.80
2022-10-03T06:05:58.112Z,9.80
2022-10-03T06:08:34.049Z,9.80
2022-10-03T06:11:32.188Z,9.80
2022-10-03T06:14:35.908Z,9.80
2022-10-03T06:17:24.439Z,9.80
2022-10-03T06:20:09.667Z,9.90
2022-10-03T06:23:05.700Z,9.80
2022-10-03T06:25:44.942Z,9.90
2022-10-03T06:28:50.785Z,9.90
2022-10-03T06:31:50.536Z,10.00
2022-10-03T06:34:38.893Z,10.00
2022-10-03T06:37:14.878Z,10.00
2022-10-03T06:40:12.645Z,10.00
2022-10-03T06:43:00.951Z,10.00
2022-10-03T06:46:09.172Z,10.00
2022-10-03T06:49:25.118Z,10.10
2022-10-03T06:52:41.800Z,10.10
2022-10-03T06:55:39.010Z,10.20
2022-10-03T06:58:34.716Z,10.30
2022-10-03T07:01:25.291Z,10.30
2022-10-03T07:04:13.903Z,10.40
2022-10-03T07:06:59.307Z,10.40
2022-10-03T07:09:44.590Z,10.40
2022-10-03T07:12:21.094Z,10.50
2022-10-03T07:15:14.858Z,10.50
2022-10-03T07:17:47.348Z,10.60
2022-10-03T07:20:23.117Z,10.50
2022-10-03T07:23:08.747Z,10.60
2022-10-03T07:25:46.435Z,10.70
2022-10-03T07:28:46.099Z,10.70
2022-10-03T07:31:33.802Z,10.80
2022-10-03T07:34:46.267Z,10.90
2022-10-03T07:37:50.019Z,10.90
2022-10-03T07:40:27.019Z,10.90
2022-10-03T07:43:19.327Z,11.00
2022-10-03T07:46:06.556Z,11.10
2022-10-03T07:48:45.427Z,11.20
2022-10-03T07:52:02.195Z,11.10
2022-10-03T07:54:39.260Z,11.20
2022-10-03T07:57:24.797Z,11.10
2022-10-03T08:00:13.313Z,11.20
2022-10-03T08:02:58.220Z,11.20
2022-10-03T08:05:43.712Z,11.20
2022-10-03T08:08:29.668Z,11.30
2022-10-03T08:11:15.045Z,11.20
2022-10-03T08:14:06.726Z,11.20
2022-10-03T08:17:00.840Z,11.30
2022-10-03T08:19:46.113Z,11.40
2022-10-03T08:22:34.078Z,11.40
2022-10-03T08:25:19.682Z,11.50
2022-10-03T08:28:04.787Z,11.60
2022-10-03T08:30:54.932Z,11.70
2022-10-03T08:33:44.955Z,11.60
2022-10-03T08:36:32.847Z,11.70
2022-10-03T08:39:20.397Z,11.90
2022-10-03T08:42:14.890Z,12.00
2022-10-03T08:45:26.850Z,12.20
2022-10-03T08:48:18.668Z,12.20
2022-10-03T08:50:48.255Z,12.20
2022-10-03T08:53:51.518Z,12.20
2022-10-03T08:56:24.579Z,12.40
2022-10-03T08:59:28.196Z,12.50
2022-10-03T09:02:16.080Z,12.50
2022-10-03T09:04:51.600Z,12.60
2022-10-03T09:07:48.871Z,12.70
2022-10-03T09:10:36.305Z,12.80
2022-10-03T09:13:09.599Z,12.90
2022-10-03T09:16:01.008Z,13.00
2022-10-03T09:18:33.697Z,13.00
2022-10-03T09:21:37.307Z,13.00
2022-10-03T09:24:25.741Z,13.10
2022-10-03T09:27:18.332Z,13.20
2022-10-03T09:29:57.338Z,13.20
2022-10-03T09:32:42.044Z,13.20
2022-10-03T09:35:46.898Z,13.30
2022-10-03T09:38:35.541Z,13.40
2022-10-03T09:41:25.094Z,13.50
2022-10-03T09:44:00.845Z,13.60
2022-10-03T09:46:45.566Z,13.60
2022-10-03T09:49:48.786Z,13.80
2022-10-03T09:55:34.188Z,13.90
2022-10-03T09:58:15.565Z,14.20
2022-10-03T10:01:09.071Z,14.20
2022-10-03T10:03:48.109Z,14.40
2022-10-03T10:06:55.487Z,14.50
2022-10-03T10:10:05.641Z,14.60
2022-10-03T10:13:00.571Z,14.50
2022-10-03T10:16:08.422Z,14.80
2022-10-03T10:19:03.241Z,15.00
2022-10-03T10:21:40.814Z,14.90
2022-10-03T10:24:16.272Z,15.20
2022-10-03T10:27:11.795Z,15.30
2022-10-03T10:30:04.290Z,15.50
2022-10-03T10:32:55.158Z,15.80
2022-10-03T10:35:46.206Z,15.80
2022-10-03T10:38:47.011Z,15.90
2022-10-03T10:41:53.955Z,16.00
2022-10-03T10:58:36.558Z,16.20
2022-10-03T11:01:55.085Z,18.10
2022-10-03T11:04:58.925Z,17.90
2022-10-03T11:08:04.327Z,18.10
2022-10-03T11:10:53.395Z,18.00
2022-10-03T11:13:35.428Z,18.30
2022-10-03T11:16:39.955Z,18.30
2022-10-03T11:19:44.309Z,17.80
2022-10-03T11:22:45.242Z,17.70
2022-10-03T11:25:30.938Z,17.90
2022-10-03T11:28:26.956Z,18.10
2022-10-03T11:31:25.623Z,18.40
2022-10-03T11:34:29.671Z,19.10
2022-10-03T11:36:59.143Z,19.30
2022-10-03T11:39:56.222Z,19.10
2022-10-03T11:42:41.084Z,18.20
2022-10-03T11:45:26.028Z,17.90
2022-10-03T11:48:26.163Z,18.00
2022-10-03T11:51:10.654Z,18.40
2022-10-03T11:53:43.659Z,18.50
2022-10-03T11:56:16.274Z,18.80
2022-10-03T11:58:55.465Z,19.20
2022-10-03T12:01:34.209Z,19.60
2022-10-03T12:04:09.955Z,19.70
2022-10-03T12:07:10.459Z,19.70
2022-10-03T12:10:07.380Z,20.30
2022-10-03T13:08:59.007Z,20.10
2022-10-03T13:11:51.111Z,21.60
2022-10-03T13:14:45.809Z,20.80
2022-10-03T13:17:27.549Z,20.40
2022-10-03T13:19:58.157Z,20.40
2022-10-03T13:22:43.298Z,20.30
2022-10-03T13:25:22.653Z,19.40
2022-10-03T13:28:06.119Z,19.10
2022-10-03T13:30:48.257Z,18.80
2022-10-03T13:33:25.866Z,18.90
2022-10-03T13:36:09.917Z,19.00
2022-10-03T13:38:49.942Z,18.70
2022-10-03T13:41:36.352Z,18.50
2022-10-03T13:44:29.539Z,18.50
2022-10-03T13:47:25.158Z,18.10
2022-10-03T13:50:01.690Z,18.10
2022-10-03T13:52:47.358Z,18.10
2022-10-03T13:55:38.618Z,17.90
2022-10-03T13:58:32.676Z,17.90
2022-10-03T14:01:13.815Z,17.90
2022-10-03T14:04:08.727Z,17.80
2022-10-03T14:06:51.169Z,18.30
2022-10-03T14:09:43.019Z,19.40
2022-10-03T14:12:51.195Z,20.20
2022-10-03T14:15:36.198Z,20.40
2022-10-03T14:18:08.502Z,20.60
2022-10-03T14:20:53.405Z,20.80
2022-10-03T14:23:28.299Z,19.80
2022-10-03T14:26:07.581Z,20.60
2022-10-03T14:28:55.953Z,20.90
2022-10-03T14:31:54.822Z,20.40
2022-10-03T14:34:38.551Z,20.00
2022-10-03T14:37:08.275Z,19.70
2022-10-03T14:39:47.189Z,19.60
2022-10-03T14:42:34.967Z,19.90
2022-10-03T14:45:13.536Z,19.70
2022-10-03T14:47:42.810Z,19.30
2022-10-03T14:50:30.324Z,19.30
2022-10-03T14:53:09.041Z,19.30
2022-10-03T14:55:45.107Z,19.00
2022-10-03T14:58:29.592Z,18.40
2022-10-03T15:01:04.270Z,18.30
2022-10-03T15:03:39.336Z,18.30
2022-10-03T15:06:32.363Z,18.50
2022-10-03T15:09:03.138Z,18.40
2022-10-03T15:11:37.033Z,18.20
2022-10-03T15:14:09.959Z,18.00
2022-10-03T15:16:44.976Z,17.90
2022-10-03T15:19:19.078Z,17.80
2022-10-03T15:21:48.643Z,17.80
2022-10-03T15:24:35.114Z,17.80
2022-10-03T15:27:06.596Z,17.80
2022-10-03T15:29:34.973Z,17.70
2022-10-03T15:32:04.915Z,17.70
2022-10-03T15:34:38.629Z,17.70
2022-10-03T15:37:17.267Z,17.50
2022-10-03T15:39:47.772Z,17.50
2022-10-03T15:42:23.513Z,17.40
2022-10-03T15:45:00.772Z,17.30
2022-10-03T15:47:31.289Z,17.30
2022-10-03T15:50:13.487Z,17.20
2022-10-03T15:52:45.149Z,17.10
2022-10-03T15:55:39.658Z,17.30
2022-10-03T15:58:16.538Z,17.20
2022-10-03T16:00:48.583Z,17.20
2022-10-03T16:03:22.768Z,17.10
2022-10-03T16:08:29.076Z,17.20
2022-10-03T16:11:17.517Z,17.10
2022-10-03T16:13:49.022Z,17.10
2022-10-03T16:16:26.849Z,17.00
2022-10-03T16:18:53.572Z,16.90
2022-10-03T16:21:46.840Z,16.80
2022-10-03T16:24:31.597Z,16.80
2022-10-03T16:27:05.052Z,16.80
2022-10-03T16:29:36.355Z,16.80
2022-10-03T16:32:17.143Z,16.80
2022-10-03T16:34:46.585Z,16.80
2022-10-03T16:37:19.906Z,16.70
2022-10-03T16:39:54.848Z,16.50
2022-10-03T16:42:29.024Z,16.60
2022-10-03T16:44:58.433Z,16.30
2022-10-03T16:47:39.050Z,16.50
2022-10-03T16:50:27.110Z,16.40
2022-10-03T16:52:58.027Z,16.50
2022-10-03T16:55:36.173Z,16.50
2022-10-03T17:01:46.381Z,16.50
2022-10-03T17:04:27.943Z,16.40
2022-10-03T17:07:03.057Z,16.30
2022-10-03T17:09:50.555Z,16.20
2022-10-03T17:12:40.223Z,16.20
2022-10-03T17:15:18.220Z,16.20
2022-10-03T17:17:46.593Z,16.00
2022-10-03T17:20:18.271Z,16.00
2022-10-03T17:40:30.141Z,15.80
2022-10-03T17:43:02.976Z,15.40
2022-10-03T17:46:05.469Z,15.30
2022-10-03T17:48:58.273Z,15.20
2022-10-03T17:51:43.363Z,15.20
2022-10-03T17:54:33.026Z,15.10
2022-10-03T17:57:23.039Z,15.00
2022-10-03T17:59:59.314Z,15.00
2022-10-03T18:02:53.500Z,15.00
2022-10-03T18:05:43.645Z,14.90
2022-10-03T18:08:18.990Z,14.90
2022-10-03T18:10:55.966Z,14.90
2022-10-03T18:16:02.652Z,14.80
2022-10-03T18:18:45.379Z,14.80
2022-10-03T18:21:27.356Z,14.80
2022-10-03T18:24:13.184Z,14.70
2022-10-03T18:26:47.409Z,14.70
2022-10-03T18:29:34.798Z,14.60
2022-10-03T18:32:10.884Z,14.70
2022-10-03T18:35:04.338Z,14.60
2022-10-03T18:37:31.152Z,14.60
2022-10-03T18:39:59.638Z,14.50
2022-10-03T18:42:29.686Z,14.50
2022-10-03T18:44:58.783Z,14.50
2022-10-03T18:47:37.814Z,14.50
2022-10-03T18:53:06.755Z,14.40
2022-10-03T18:55:47.571Z,14.30
2022-10-03T18:58:25.987Z,14.30
2022-10-03T19:01:20.593Z,14.30
2022-10-03T19:03:54.640Z,14.40
2022-10-03T19:06:33.526Z,14.40
2022-10-03T19:09:08.752Z,14.50
2022-10-03T19:11:44.790Z,14.40
2022-10-03T19:14:17.269Z,14.30
2022-10-03T19:17:24.513Z,14.30
2022-10-03T19:19:58.796Z,14.20
2022-10-03T19:22:29.059Z,14.20
2022-10-03T19:25:02.704Z,14.20
2022-10-03T19:27:51.505Z,14.20
2022-10-03T19:30:24.554Z,14.20
2022-10-03T19:33:03.000Z,14.30
2022-10-03T19:35:31.948Z,14.20
2022-10-03T19:38:17.943Z,14.10
2022-10-03T19:43:35.039Z,14.20
2022-10-03T19:46:23.415Z,14.10
2022-10-03T19:49:19.636Z,13.90
2022-10-03T19:54:52.172Z,14.00
